sensor_id;sensor_type;location;lat;lon;timestamp;pressure;altitude;pressure_sealevel;temperature;humidity
35519;BME280;21627;48.216;16.482;2023-12-20T00:00:37;99710.84;;;-1.49;100.00
35519;BME280;21627;48.216;16.482;2023-12-20T00:03:06;99695.34;;;-1.56;100.00
35519;BME280;21627;48.216;16.482;2023-12-20T00:05:34;99696.13;;;-1.57;100.00
35519;BME280;21627;48.216;16.482;2023-12-20T00:08:02;99708.97;;;-1.54;100.00
35519;BME280;21627;48.216;16.482;2023-12-20T00:10:29;99716.03;;;-1.64;100.00
35519;BME280;21627;48.216;16.482;2023-12-20T00:12:56;99719.31;;;-1.67;100.00
35519;BME280;21627;48.216;16.482;2023-12-20T00:15:23;99736.63;;;-1.58;100.00
35519;BME280;21627;48.216;16.482;2023-12-20T00:17:50;99746.63;;;-1.61;100.00
35519;BME280;21627;48.216;16.482;2023-12-20T00:20:18;99739.53;;;-1.68;100.00
35519;BME280;21627;48.216;16.482;2023-12-20T00:22:45;99731.25;;;-1.64;100.00
35519;BME280;21627;48.216;16.482;2023-12-20T00:25:12;99726.69;;;-1.71;100.00
35519;BME280;21627;48.216;16.482;2023-12-20T00:27:39;99718.06;;;-1.75;100.00
35519;BME280;21627;48.216;16.482;2023-12-20T00:30:07;99709.97;;;-1.86;100.00
35519;BME280;21627;48.216;16.482;2023-12-20T00:32:36;99705.25;;;-1.96;100.00
35519;BME280;21627;48.216;16.482;2023-12-20T00:35:03;99718.50;;;-1.84;100.00
35519;BME280;21627;48.216;16.482;2023-12-20T00:37:31;99719.78;;;-1.74;100.00
35519;BME280;21627;48.216;16.482;2023-12-20T00:39:58;99716.91;;;-1.82;100.00
35519;BME280;21627;48.216;16.482;2023-12-20T00:42:25;99734.44;;;-1.86;100.00
35519;BME280;21627;48.216;16.482;2023-12-20T00:44:52;99727.47;;;-1.90;100.00
35519;BME280;21627;48.216;16.482;2023-12-20T00:47:19;99713.56;;;-1.99;100.00
35519;BME280;21627;48.216;16.482;2023-12-20T00:49:46;99717.69;;;-2.01;100.00
35519;BME280;21627;48.216;16.482;2023-12-20T00:52:14;99699.44;;;-2.11;100.00
35519;BME280;21627;48.216;16.482;2023-12-20T00:54:41;99711.19;;;-2.12;100.00
35519;BME280;21627;48.216;16.482;2023-12-20T00:57:08;99726.06;;;-2.02;100.00
35519;BME280;21627;48.216;16.482;2023-12-20T00:59:35;99705.59;;;-2.06;100.00
35519;BME280;21627;48.216;16.482;2023-12-20T01:02:03;99719.50;;;-2.14;100.00
35519;BME280;21627;48.216;16.482;2023-12-20T01:04:30;99701.78;;;-2.14;100.00
35519;BME280;21627;48.216;16.482;2023-12-20T01:06:57;99714.88;;;-2.23;100.00
35519;BME280;21627;48.216;16.482;2023-12-20T01:09:24;99735.38;;;-2.19;100.00
35519;BME280;21627;48.216;16.482;2023-12-20T01:11:53;99724.56;;;-2.14;100.00
35519;BME280;21627;48.216;16.482;2023-12-20T01:14:20;99725.47;;;-2.14;100.00
35519;BME280;21627;48.216;16.482;2023-12-20T01:16:47;99723.56;;;-2.18;100.00
35519;BME280;21627;48.216;16.482;2023-12-20T01:19:14;99723.81;;;-2.13;100.00
35519;BME280;21627;48.216;16.482;2023-12-20T01:21:42;99725.75;;;-2.08;100.00
35519;BME280;21627;48.216;16.482;2023-12-20T01:24:09;99708.97;;;-2.06;100.00
35519;BME280;21627;48.216;16.482;2023-12-20T01:26:36;99700.81;;;-2.00;100.00
35519;BME280;21627;48.216;16.482;2023-12-20T01:29:03;99700.81;;;-2.00;100.00
35519;BME280;21627;48.216;16.482;2023-12-20T01:31:30;99712.47;;;-2.04;100.00
35519;BME280;21627;48.216;16.482;2023-12-20T01:33:57;99689.56;;;-2.05;100.00
35519;BME280;21627;48.216;16.482;2023-12-20T01:36:25;99693.84;;;-2.04;100.00
35519;BME280;21627;48.216;16.482;2023-12-20T01:38:52;99685.47;;;-2.03;100.00
35519;BME280;21627;48.216;16.482;2023-12-20T01:41:19;99665.16;;;-2.21;100.00
35519;BME280;21627;48.216;16.482;2023-12-20T01:43:46;99664.38;;;-2.20;100.00
35519;BME280;21627;48.216;16.482;2023-12-20T01:46:19;99651.69;;;-2.20;100.00
35519;BME280;21627;48.216;16.482;2023-12-20T01:48:48;99643.88;;;-2.25;100.00
35519;BME280;21627;48.216;16.482;2023-12-20T01:51:15;99644.06;;;-2.22;100.00
35519;BME280;21627;48.216;16.482;2023-12-20T01:53:43;99645.91;;;-2.18;100.00
35519;BME280;21627;48.216;16.482;2023-12-20T01:56:11;99655.03;;;-2.21;100.00
35519;BME280;21627;48.216;16.482;2023-12-20T01:58:44;99655.81;;;-2.22;100.00
35519;BME280;21627;48.216;16.482;2023-12-20T02:01:13;99642.81;;;-2.12;100.00
35519;BME280;21627;48.216;16.482;2023-12-20T02:03:41;99632.66;;;-2.12;100.00
35519;BME280;21627;48.216;16.482;2023-12-20T02:06:09;99620.31;;;-2.24;100.00
35519;BME280;21627;48.216;16.482;2023-12-20T02:08:36;99632.09;;;-2.24;100.00
35519;BME280;21627;48.216;16.482;2023-12-20T02:11:04;99617.78;;;-2.24;100.00
35519;BME280;21627;48.216;16.482;2023-12-20T02:13:31;99625.75;;;-2.16;100.00
35519;BME280;21627;48.216;16.482;2023-12-20T02:16:00;99620.22;;;-2.25;100.00
35519;BME280;21627;48.216;16.482;2023-12-20T02:18:28;99607.75;;;-2.38;100.00
35519;BME280;21627;48.216;16.482;2023-12-20T02:20:55;99602.31;;;-2.46;100.00
35519;BME280;21627;48.216;16.482;2023-12-20T02:23:23;99593.81;;;-2.65;100.00
35519;BME280;21627;48.216;16.482;2023-12-20T02:25:50;99585.19;;;-2.68;100.00
35519;BME280;21627;48.216;16.482;2023-12-20T02:28:17;99575.00;;;-2.70;100.00
35519;BME280;21627;48.216;16.482;2023-12-20T02:30:45;99572.16;;;-2.76;100.00
35519;BME280;21627;48.216;16.482;2023-12-20T02:33:12;99569.09;;;-2.87;100.00
35519;BME280;21627;48.216;16.482;2023-12-20T02:35:41;99573.31;;;-2.87;100.00
35519;BME280;21627;48.216;16.482;2023-12-20T02:38:08;99553.13;;;-2.86;100.00
35519;BME280;21627;48.216;16.482;2023-12-20T02:40:35;99555.41;;;-2.90;100.00
35519;BME280;21627;48.216;16.482;2023-12-20T02:43:02;99565.41;;;-2.93;100.00
35519;BME280;21627;48.216;16.482;2023-12-20T02:45:29;99556.53;;;-2.85;100.00
35519;BME280;21627;48.216;16.482;2023-12-20T02:47:57;99559.38;;;-2.79;100.00
35519;BME280;21627;48.216;16.482;2023-12-20T02:50:24;99557.84;;;-2.75;100.00
35519;BME280;21627;48.216;16.482;2023-12-20T02:52:51;99552.31;;;-2.68;100.00
35519;BME280;21627;48.216;16.482;2023-12-20T02:55:19;99549.78;;;-2.68;100.00
35519;BME280;21627;48.216;16.482;2023-12-20T02:57:46;99559.31;;;-2.63;100.00
35519;BME280;21627;48.216;16.482;2023-12-20T03:00:14;99550.09;;;-2.62;100.00
35519;BME280;21627;48.216;16.482;2023-12-20T03:02:41;99543.78;;;-2.52;100.00
35519;BME280;21627;48.216;16.482;2023-12-20T03:05:08;99551.38;;;-2.52;100.00
35519;BME280;21627;48.216;16.482;2023-12-20T03:07:37;99553.13;;;-2.51;100.00
35519;BME280;21627;48.216;16.482;2023-12-20T03:10:05;99546.25;;;-2.54;100.00
35519;BME280;21627;48.216;16.482;2023-12-20T03:12:46;99539.81;;;-2.47;100.00
35519;BME280;21627;48.216;16.482;2023-12-20T03:15:13;99550.84;;;-2.47;100.00
35519;BME280;21627;48.216;16.482;2023-12-20T03:17:40;99561.75;;;-2.48;100.00
35519;BME280;21627;48.216;16.482;2023-12-20T03:20:08;99562.97;;;-2.40;100.00
35519;BME280;21627;48.216;16.482;2023-12-20T03:22:36;99557.34;;;-2.34;100.00
35519;BME280;21627;48.216;16.482;2023-12-20T03:25:03;99562.53;;;-2.49;100.00
35519;BME280;21627;48.216;16.482;2023-12-20T03:27:30;99543.16;;;-2.48;100.00
35519;BME280;21627;48.216;16.482;2023-12-20T03:29:57;99546.50;;;-2.49;100.00
35519;BME280;21627;48.216;16.482;2023-12-20T03:32:24;99557.47;;;-2.49;100.00
35519;BME280;21627;48.216;16.482;2023-12-20T03:34:52;99551.56;;;-2.49;100.00
35519;BME280;21627;48.216;16.482;2023-12-20T03:37:19;99548.00;;;-2.53;100.00
35519;BME280;21627;48.216;16.482;2023-12-20T03:39:46;99549.38;;;-2.59;100.00
35519;BME280;21627;48.216;16.482;2023-12-20T03:42:13;99546.97;;;-2.56;100.00
35519;BME280;21627;48.216;16.482;2023-12-20T03:44:41;99541.78;;;-2.59;100.00
35519;BME280;21627;48.216;16.482;2023-12-20T03:47:08;99539.06;;;-2.63;100.00
35519;BME280;21627;48.216;16.482;2023-12-20T03:49:35;99539.16;;;-2.61;100.00
35519;BME280;21627;48.216;16.482;2023-12-20T03:52:05;99537.25;;;-2.65;100.00
35519;BME280;21627;48.216;16.482;2023-12-20T03:54:33;99542.41;;;-2.64;100.00
35519;BME280;21627;48.216;16.482;2023-12-20T03:57:00;99536.25;;;-2.69;100.00
35519;BME280;21627;48.216;16.482;2023-12-20T03:59:27;99540.50;;;-2.68;100.00
35519;BME280;21627;48.216;16.482;2023-12-20T04:01:54;99538.34;;;-2.60;100.00
35519;BME280;21627;48.216;16.482;2023-12-20T04:04:21;99535.06;;;-2.75;100.00
35519;BME280;21627;48.216;16.482;2023-12-20T04:06:48;99540.25;;;-2.90;100.00
35519;BME280;21627;48.216;16.482;2023-12-20T04:09:16;99539.53;;;-2.88;100.00
35519;BME280;21627;48.216;16.482;2023-12-20T04:11:43;99538.75;;;-2.87;100.00
35519;BME280;21627;48.216;16.482;2023-12-20T04:14:10;99539.47;;;-2.89;100.00
35519;BME280;21627;48.216;16.482;2023-12-20T04:16:37;99540.34;;;-2.89;100.00
35519;BME280;21627;48.216;16.482;2023-12-20T04:19:05;99541.28;;;-2.87;100.00
35519;BME280;21627;48.216;16.482;2023-12-20T04:21:33;99538.03;;;-2.84;100.00
35519;BME280;21627;48.216;16.482;2023-12-20T04:24:00;99542.94;;;-2.87;100.00
35519;BME280;21627;48.216;16.482;2023-12-20T04:26:27;99536.28;;;-2.85;100.00
35519;BME280;21627;48.216;16.482;2023-12-20T04:28:54;99539.00;;;-2.82;100.00
35519;BME280;21627;48.216;16.482;2023-12-20T04:31:21;99546.41;;;-2.85;100.00
35519;BME280;21627;48.216;16.482;2023-12-20T04:33:48;99545.16;;;-2.77;100.00
35519;BME280;21627;48.216;16.482;2023-12-20T04:36:15;99536.38;;;-2.84;100.00
35519;BME280;21627;48.216;16.482;2023-12-20T04:38:42;99539.75;;;-2.83;100.00
35519;BME280;21627;48.216;16.482;2023-12-20T04:41:10;99548.63;;;-2.91;100.00
35519;BME280;21627;48.216;16.482;2023-12-20T04:43:37;99539.31;;;-2.92;100.00
35519;BME280;21627;48.216;16.482;2023-12-20T04:46:04;99541.13;;;-2.90;100.00
35519;BME280;21627;48.216;16.482;2023-12-20T04:48:31;99539.69;;;-2.85;100.00
35519;BME280;21627;48.216;16.482;2023-12-20T04:50:58;99535.28;;;-2.89;100.00
35519;BME280;21627;48.216;16.482;2023-12-20T04:53:25;99531.03;;;-2.90;100.00
35519;BME280;21627;48.216;16.482;2023-12-20T04:55:53;99532.88;;;-2.86;100.00
35519;BME280;21627;48.216;16.482;2023-12-20T04:58:20;99529.88;;;-2.78;100.00
35519;BME280;21627;48.216;16.482;2023-12-20T05:00:47;99510.97;;;-2.85;100.00
35519;BME280;21627;48.216;16.482;2023-12-20T05:03:14;99511.94;;;-2.83;100.00
35519;BME280;21627;48.216;16.482;2023-12-20T05:05:41;99503.63;;;-2.80;100.00
35519;BME280;21627;48.216;16.482;2023-12-20T05:08:08;99513.38;;;-2.88;100.00
35519;BME280;21627;48.216;16.482;2023-12-20T05:10:36;99514.91;;;-2.92;100.00
35519;BME280;21627;48.216;16.482;2023-12-20T05:13:03;99510.47;;;-2.96;100.00
35519;BME280;21627;48.216;16.482;2023-12-20T05:15:30;99514.03;;;-2.92;100.00
35519;BME280;21627;48.216;16.482;2023-12-20T05:17:58;99514.03;;;-2.92;100.00
35519;BME280;21627;48.216;16.482;2023-12-20T05:20:25;99522.72;;;-2.87;100.00
35519;BME280;21627;48.216;16.482;2023-12-20T05:22:52;99520.00;;;-2.90;100.00
35519;BME280;21627;48.216;16.482;2023-12-20T05:25:19;99516.63;;;-2.91;100.00
35519;BME280;21627;48.216;16.482;2023-12-20T05:27:47;99518.91;;;-2.95;100.00
35519;BME280;21627;48.216;16.482;2023-12-20T05:30:15;99517.81;;;-2.84;100.00
35519;BME280;21627;48.216;16.482;2023-12-20T05:32:42;99517.72;;;-2.86;100.00
35519;BME280;21627;48.216;16.482;2023-12-20T05:35:09;99509.72;;;-2.77;100.00
35519;BME280;21627;48.216;16.482;2023-12-20T05:37:36;99513.03;;;-2.78;100.00
35519;BME280;21627;48.216;16.482;2023-12-20T05:40:04;99501.47;;;-2.73;100.00
35519;BME280;21627;48.216;16.482;2023-12-20T05:42:32;99510.16;;;-2.68;100.00
35519;BME280;21627;48.216;16.482;2023-12-20T05:44:59;99513.78;;;-2.63;100.00
35519;BME280;21627;48.216;16.482;2023-12-20T05:47:27;99522.69;;;-2.53;100.00
35519;BME280;21627;48.216;16.482;2023-12-20T05:49:54;99533.16;;;-2.45;100.00
35519;BME280;21627;48.216;16.482;2023-12-20T05:52:21;99525.56;;;-2.45;100.00
35519;BME280;21627;48.216;16.482;2023-12-20T05:54:49;99521.31;;;-2.46;100.00
35519;BME280;21627;48.216;16.482;2023-12-20T05:57:16;99523.84;;;-2.46;100.00
35519;BME280;21627;48.216;16.482;2023-12-20T05:59:43;99519.66;;;-2.46;100.00
35519;BME280;21627;48.216;16.482;2023-12-20T06:02:10;99531.59;;;-2.43;100.00
35519;BME280;21627;48.216;16.482;2023-12-20T06:04:37;99545.69;;;-2.30;100.00
35519;BME280;21627;48.216;16.482;2023-12-20T06:07:11;99544.97;;;-2.28;100.00
35519;BME280;21627;48.216;16.482;2023-12-20T06:09:38;99556.91;;;-2.25;100.00
35519;BME280;21627;48.216;16.482;2023-12-20T06:12:07;99546.19;;;-2.20;100.00
35519;BME280;21627;48.216;16.482;2023-12-20T06:14:34;99537.50;;;-2.25;100.00
35519;BME280;21627;48.216;16.482;2023-12-20T06:17:03;99535.50;;;-2.14;100.00
35519;BME280;21627;48.216;16.482;2023-12-20T06:19:30;99528.91;;;-2.10;100.00
35519;BME280;21627;48.216;16.482;2023-12-20T06:21:57;99529.13;;;-2.06;100.00
35519;BME280;21627;48.216;16.482;2023-12-20T06:24:25;99533.75;;;-1.97;100.00
35519;BME280;21627;48.216;16.482;2023-12-20T06:26:54;99540.78;;;-1.91;100.00
35519;BME280;21627;48.216;16.482;2023-12-20T06:29:22;99536.56;;;-1.91;100.00
35519;BME280;21627;48.216;16.482;2023-12-20T06:31:49;99546.19;;;-1.84;100.00
35519;BME280;21627;48.216;16.482;2023-12-20T06:34:17;99547.47;;;-1.74;100.00
35519;BME280;21627;48.216;16.482;2023-12-20T06:36:44;99544.16;;;-1.73;100.00
35519;BME280;21627;48.216;16.482;2023-12-20T06:39:11;99545.13;;;-1.69;100.00
35519;BME280;21627;48.216;16.482;2023-12-20T06:41:39;99557.31;;;-1.43;100.00
35519;BME280;21627;48.216;16.482;2023-12-20T06:44:07;99548.84;;;-1.43;100.00
35519;BME280;21627;48.216;16.482;2023-12-20T06:46:35;99553.78;;;-1.46;100.00
35519;BME280;21627;48.216;16.482;2023-12-20T06:49:02;99553.19;;;-1.41;100.00
35519;BME280;21627;48.216;16.482;2023-12-20T06:51:29;99562.53;;;-1.40;100.00
35519;BME280;21627;48.216;16.482;2023-12-20T06:53:57;99551.44;;;-1.42;100.00
35519;BME280;21627;48.216;16.482;2023-12-20T06:56:24;99545.31;;;-1.27;100.00
35519;BME280;21627;48.216;16.482;2023-12-20T06:58:52;99533.84;;;-1.19;100.00
35519;BME280;21627;48.216;16.482;2023-12-20T07:01:19;99529.16;;;-1.10;100.00
35519;BME280;21627;48.216;16.482;2023-12-20T07:03:46;99519.53;;;-0.98;100.00
35519;BME280;21627;48.216;16.482;2023-12-20T07:06:14;99503.63;;;-0.94;100.00
35519;BME280;21627;48.216;16.482;2023-12-20T07:08:44;99510.66;;;-0.67;100.00
35519;BME280;21627;48.216;16.482;2023-12-20T07:11:11;99513.25;;;-0.45;100.00
35519;BME280;21627;48.216;16.482;2023-12-20T07:13:38;99508.25;;;0.25;100.00
35519;BME280;21627;48.216;16.482;2023-12-20T07:16:06;99496.59;;;0.30;100.00
35519;BME280;21627;48.216;16.482;2023-12-20T07:18:33;99512.63;;;0.75;100.00
35519;BME280;21627;48.216;16.482;2023-12-20T07:21:00;99517.72;;;0.99;100.00
35519;BME280;21627;48.216;16.482;2023-12-20T07:23:27;99524.00;;;1.35;100.00
35519;BME280;21627;48.216;16.482;2023-12-20T07:25:54;99533.03;;;1.78;100.00
35519;BME280;21627;48.216;16.482;2023-12-20T07:28:21;99552.47;;;2.30;100.00
35519;BME280;21627;48.216;16.482;2023-12-20T07:30:49;99553.09;;;2.81;100.00
35519;BME280;21627;48.216;16.482;2023-12-20T07:33:16;99551.22;;;3.06;100.00
35519;BME280;21627;48.216;16.482;2023-12-20T07:35:44;99574.75;;;3.26;100.00
35519;BME280;21627;48.216;16.482;2023-12-20T07:38:12;99566.16;;;3.57;100.00
35519;BME280;21627;48.216;16.482;2023-12-20T07:40:39;99582.91;;;3.79;100.00
35519;BME280;21627;48.216;16.482;2023-12-20T07:43:06;99581.25;;;3.81;100.00
35519;BME280;21627;48.216;16.482;2023-12-20T07:45:34;99586.38;;;3.81;100.00
35519;BME280;21627;48.216;16.482;2023-12-20T07:48:01;99582.03;;;3.79;100.00
35519;BME280;21627;48.216;16.482;2023-12-20T07:50:29;99587.34;;;3.86;100.00
35519;BME280;21627;48.216;16.482;2023-12-20T07:52:56;99598.78;;;4.01;100.00
35519;BME280;21627;48.216;16.482;2023-12-20T07:55:23;99589.13;;;4.27;100.00
35519;BME280;21627;48.216;16.482;2023-12-20T07:57:50;99574.84;;;4.37;100.00
35519;BME280;21627;48.216;16.482;2023-12-20T08:00:18;99592.00;;;4.41;100.00
35519;BME280;21627;48.216;16.482;2023-12-20T08:02:45;99574.00;;;4.36;100.00
35519;BME280;21627;48.216;16.482;2023-12-20T08:05:12;99569.91;;;4.46;100.00
35519;BME280;21627;48.216;16.482;2023-12-20T08:07:42;99571.50;;;4.39;100.00
35519;BME280;21627;48.216;16.482;2023-12-20T08:10:10;99571.66;;;4.47;100.00
35519;BME280;21627;48.216;16.482;2023-12-20T08:12:37;99580.66;;;4.69;100.00
35519;BME280;21627;48.216;16.482;2023-12-20T08:15:07;99591.78;;;4.71;100.00
35519;BME280;21627;48.216;16.482;2023-12-20T08:17:34;99585.06;;;4.76;100.00
35519;BME280;21627;48.216;16.482;2023-12-20T08:20:01;99579.66;;;5.05;100.00
35519;BME280;21627;48.216;16.482;2023-12-20T08:22:29;99570.63;;;5.24;100.00
35519;BME280;21627;48.216;16.482;2023-12-20T08:24:56;99566.69;;;5.42;100.00
35519;BME280;21627;48.216;16.482;2023-12-20T08:27:23;99573.59;;;5.45;100.00
35519;BME280;21627;48.216;16.482;2023-12-20T08:29:50;99559.47;;;5.70;100.00
35519;BME280;21627;48.216;16.482;2023-12-20T08:32:17;99584.31;;;5.73;100.00
35519;BME280;21627;48.216;16.482;2023-12-20T08:34:44;99587.88;;;5.81;100.00
35519;BME280;21627;48.216;16.482;2023-12-20T08:37:12;99590.59;;;5.90;100.00
35519;BME280;21627;48.216;16.482;2023-12-20T08:39:39;99586.50;;;6.00;100.00
35519;BME280;21627;48.216;16.482;2023-12-20T08:42:10;99591.75;;;6.07;100.00
35519;BME280;21627;48.216;16.482;2023-12-20T08:44:37;99595.13;;;6.05;100.00
35519;BME280;21627;48.216;16.482;2023-12-20T08:47:05;99600.38;;;6.14;100.00
35519;BME280;21627;48.216;16.482;2023-12-20T08:49:32;99588.47;;;6.18;100.00
35519;BME280;21627;48.216;16.482;2023-12-20T08:51:59;99601.25;;;6.13;100.00
35519;BME280;21627;48.216;16.482;2023-12-20T08:54:26;99594.56;;;6.23;100.00
35519;BME280;21627;48.216;16.482;2023-12-20T08:56:53;99611.81;;;6.33;100.00
35519;BME280;21627;48.216;16.482;2023-12-20T08:59:20;99632.25;;;6.27;100.00
35519;BME280;21627;48.216;16.482;2023-12-20T09:01:48;99639.16;;;6.31;100.00
35519;BME280;21627;48.216;16.482;2023-12-20T09:04:21;99631.44;;;6.28;100.00
35519;BME280;21627;48.216;16.482;2023-12-20T09:06:48;99632.31;;;6.30;100.00
35519;BME280;21627;48.216;16.482;2023-12-20T09:09:16;99638.38;;;6.35;100.00
35519;BME280;21627;48.216;16.482;2023-12-20T09:11:43;99642.75;;;6.41;100.00
35519;BME280;21627;48.216;16.482;2023-12-20T09:14:13;99644.38;;;6.37;100.00
35519;BME280;21627;48.216;16.482;2023-12-20T09:16:40;99640.19;;;6.42;100.00
35519;BME280;21627;48.216;16.482;2023-12-20T09:19:07;99652.19;;;6.45;100.00
35519;BME280;21627;48.216;16.482;2023-12-20T09:21:34;99656.50;;;6.46;100.00
35519;BME280;21627;48.216;16.482;2023-12-20T09:24:01;99652.13;;;6.39;100.00
35519;BME280;21627;48.216;16.482;2023-12-20T09:26:29;99647.66;;;6.27;100.00
35519;BME280;21627;48.216;16.482;2023-12-20T09:28:56;99649.31;;;6.23;100.00
35519;BME280;21627;48.216;16.482;2023-12-20T09:31:23;99650.09;;;6.19;100.00
35519;BME280;21627;48.216;16.482;2023-12-20T09:33:50;99658.66;;;6.20;100.00
35519;BME280;21627;48.216;16.482;2023-12-20T09:36:17;99661.06;;;6.09;100.00
35519;BME280;21627;48.216;16.482;2023-12-20T09:38:44;99665.31;;;6.07;100.00
35519;BME280;21627;48.216;16.482;2023-12-20T09:41:13;99663.47;;;5.98;100.00
35519;BME280;21627;48.216;16.482;2023-12-20T09:43:42;99650.53;;;5.94;100.00
35519;BME280;21627;48.216;16.482;2023-12-20T09:46:10;99643.53;;;5.86;100.00
35519;BME280;21627;48.216;16.482;2023-12-20T09:48:39;99654.69;;;5.89;100.00
35519;BME280;21627;48.216;16.482;2023-12-20T09:51:07;99644.47;;;5.90;100.00
35519;BME280;21627;48.216;16.482;2023-12-20T09:53:35;99641.78;;;5.82;100.00
35519;BME280;21627;48.216;16.482;2023-12-20T09:56:04;99638.31;;;5.82;100.00
35519;BME280;21627;48.216;16.482;2023-12-20T09:58:32;99642.50;;;5.75;100.00
35519;BME280;21627;48.216;16.482;2023-12-20T10:01:00;99641.56;;;5.70;100.00
35519;BME280;21627;48.216;16.482;2023-12-20T10:03:28;99625.09;;;5.59;100.00
35519;BME280;21627;48.216;16.482;2023-12-20T10:05:57;99635.16;;;5.48;100.00
35519;BME280;21627;48.216;16.482;2023-12-20T10:08:25;99622.25;;;5.43;100.00
35519;BME280;21627;48.216;16.482;2023-12-20T10:10:53;99610.25;;;5.41;100.00
35519;BME280;21627;48.216;16.482;2023-12-20T10:13:20;99618.66;;;5.34;100.00
35519;BME280;21627;48.216;16.482;2023-12-20T10:15:50;99598.91;;;5.28;100.00
35519;BME280;21627;48.216;16.482;2023-12-20T10:18:17;99611.72;;;5.28;100.00
35519;BME280;21627;48.216;16.482;2023-12-20T10:20:45;99609.94;;;5.24;100.00
35519;BME280;21627;48.216;16.482;2023-12-20T10:23:12;99604.75;;;5.21;100.00
35519;BME280;21627;48.216;16.482;2023-12-20T10:25:40;99595.25;;;5.15;100.00
35519;BME280;21627;48.216;16.482;2023-12-20T10:28:13;99600.41;;;5.18;100.00
35519;BME280;21627;48.216;16.482;2023-12-20T10:30:41;99591.16;;;5.25;100.00
35519;BME280;21627;48.216;16.482;2023-12-20T10:33:10;99591.13;;;5.24;100.00
35519;BME280;21627;48.216;16.482;2023-12-20T10:35:39;99582.47;;;5.18;100.00
35519;BME280;21627;48.216;16.482;2023-12-20T10:38:12;99587.59;;;5.18;100.00
35519;BME280;21627;48.216;16.482;2023-12-20T10:40:42;99583.38;;;5.20;100.00
35519;BME280;21627;48.216;16.482;2023-12-20T10:43:10;99580.09;;;5.28;100.00
35519;BME280;21627;48.216;16.482;2023-12-20T10:45:38;99584.41;;;5.30;100.00
35519;BME280;21627;48.216;16.482;2023-12-20T10:48:06;99576.00;;;5.37;100.00
35519;BME280;21627;48.216;16.482;2023-12-20T10:50:36;99582.84;;;5.38;100.00
35519;BME280;21627;48.216;16.482;2023-12-20T10:53:07;99565.84;;;5.42;100.00
35519;BME280;21627;48.216;16.482;2023-12-20T10:55:34;99559.81;;;5.40;100.00
35519;BME280;21627;48.216;16.482;2023-12-20T10:58:07;99554.84;;;5.49;100.00
35519;BME280;21627;48.216;16.482;2023-12-20T11:00:40;99557.31;;;5.43;100.00
35519;BME280;21627;48.216;16.482;2023-12-20T11:03:09;99551.41;;;5.49;100.00
35519;BME280;21627;48.216;16.482;2023-12-20T11:06:03;99542.91;;;5.50;100.00
35519;BME280;21627;48.216;16.482;2023-12-20T11:09:25;99540.38;;;5.53;100.00
35519;BME280;21627;48.216;16.482;2023-12-20T11:12:22;99548.16;;;5.59;100.00
35519;BME280;21627;48.216;16.482;2023-12-20T11:14:54;99541.28;;;5.56;100.00
35519;BME280;21627;48.216;16.482;2023-12-20T11:17:27;99518.22;;;5.58;100.00
35519;BME280;21627;48.216;16.482;2023-12-20T11:22:26;99522.56;;;5.60;100.00
35519;BME280;21627;48.216;16.482;2023-12-20T11:25:04;99519.16;;;5.63;100.00
35519;BME280;21627;48.216;16.482;2023-12-20T11:27:31;99525.41;;;5.79;100.00
35519;BME280;21627;48.216;16.482;2023-12-20T11:29:59;99527.13;;;5.80;100.00
35519;BME280;21627;48.216;16.482;2023-12-20T11:32:28;99505.72;;;5.78;100.00
35519;BME280;21627;48.216;16.482;2023-12-20T11:37:38;99503.31;;;5.89;100.00
35519;BME280;21627;48.216;16.482;2023-12-20T11:40:17;99509.44;;;5.95;100.00
35519;BME280;21627;48.216;16.482;2023-12-20T11:42:49;99501.72;;;5.94;100.00
35519;BME280;21627;48.216;16.482;2023-12-20T11:45:19;99494.78;;;5.91;100.00
35519;BME280;21627;48.216;16.482;2023-12-20T11:47:50;99506.16;;;6.05;100.00
35519;BME280;21627;48.216;16.482;2023-12-20T11:50:19;99518.16;;;6.06;100.00
35519;BME280;21627;48.216;16.482;2023-12-20T11:52:48;99518.19;;;6.10;100.00
35519;BME280;21627;48.216;16.482;2023-12-20T11:55:15;99512.22;;;6.11;100.00
35519;BME280;21627;48.216;16.482;2023-12-20T11:57:43;99506.34;;;6.19;100.00
35519;BME280;21627;48.216;16.482;2023-12-20T12:00:14;99494.25;;;6.12;100.00
35519;BME280;21627;48.216;16.482;2023-12-20T12:02:41;99492.72;;;6.23;100.00
35519;BME280;21627;48.216;16.482;2023-12-20T12:05:10;99486.75;;;6.26;100.00
35519;BME280;21627;48.216;16.482;2023-12-20T12:07:38;99500.47;;;6.28;100.00
35519;BME280;21627;48.216;16.482;2023-12-20T12:10:06;99500.66;;;6.40;100.00
35519;BME280;21627;48.216;16.482;2023-12-20T12:12:35;99494.69;;;6.44;100.00
35519;BME280;21627;48.216;16.482;2023-12-20T12:15:02;99488.66;;;6.41;100.00
35519;BME280;21627;48.216;16.482;2023-12-20T12:17:30;99499.13;;;6.56;100.00
35519;BME280;21627;48.216;16.482;2023-12-20T12:20:05;99500.13;;;6.69;100.00
35519;BME280;21627;48.216;16.482;2023-12-20T12:22:32;99484.69;;;6.67;100.00
35519;BME280;21627;48.216;16.482;2023-12-20T12:25:10;99495.81;;;6.66;100.00
35519;BME280;21627;48.216;16.482;2023-12-20T12:27:41;99501.88;;;6.75;100.00
35519;BME280;21627;48.216;16.482;2023-12-20T12:30:10;99498.50;;;6.76;100.00
35519;BME280;21627;48.216;16.482;2023-12-20T12:32:40;99476.22;;;6.76;100.00
35519;BME280;21627;48.216;16.482;2023-12-20T12:35:08;99491.66;;;6.76;100.00
35519;BME280;21627;48.216;16.482;2023-12-20T12:37:39;99501.09;;;6.79;100.00
35519;BME280;21627;48.216;16.482;2023-12-20T12:40:15;99490.91;;;6.86;100.00
35519;BME280;21627;48.216;16.482;2023-12-20T12:42:44;99487.50;;;6.89;100.00
35519;BME280;21627;48.216;16.482;2023-12-20T12:45:12;99494.38;;;6.91;100.00
35519;BME280;21627;48.216;16.482;2023-12-20T12:47:41;99488.31;;;6.83;100.00
35519;BME280;21627;48.216;16.482;2023-12-20T12:50:08;99489.22;;;6.88;100.00
35519;BME280;21627;48.216;16.482;2023-12-20T12:52:36;99485.66;;;6.76;100.00
35519;BME280;21627;48.216;16.482;2023-12-20T12:55:05;99490.91;;;6.86;100.00